createdAt,value
2022-11-28T00:02:21.113Z,92.78
2022-11-28T00:04:42.748Z,91.12
2022-11-28T00:07:04.548Z,92.53
2022-11-28T00:09:26.206Z,93.44
2022-11-28T00:11:48.872Z,93.43
2022-11-28T00:14:10.810Z,92.44
2022-11-28T00:16:32.378Z,90.63
2022-11-28T00:18:55.068Z,90.21
2022-11-28T00:21:17.135Z,91.70
2022-11-28T00:23:38.700Z,91.90
2022-11-28T00:26:09.166Z,92.41
2022-11-28T00:28:30.612Z,91.27
2022-11-28T00:30:52.164Z,91.59
2022-11-28T00:33:13.607Z,92.22
2022-11-28T00:35:35.089Z,92.91
2022-11-28T00:37:56.538Z,92.14
2022-11-28T00:40:18.121Z,90.55
2022-11-28T00:42:39.585Z,89.37
2022-11-28T00:45:01.004Z,89.63
2022-11-28T00:47:22.474Z,89.75
2022-11-28T00:49:43.922Z,90.28
2022-11-28T00:52:05.443Z,90.07
2022-11-28T00:54:26.923Z,89.42
2022-11-28T00:56:48.395Z,89.55
2022-11-28T00:59:09.871Z,89.02
2022-11-28T01:01:38.212Z,88.53
2022-11-28T01:04:02.251Z,87.62
2022-11-28T01:06:29.643Z,87.36
2022-11-28T01:08:51.658Z,86.89
2022-11-28T01:11:13.933Z,86.59
2022-11-28T01:13:35.393Z,87.71
2022-11-28T01:15:58.714Z,87.29
2022-11-28T01:18:20.230Z,87.31
2022-11-28T01:20:41.752Z,87.59
2022-11-28T01:23:03.453Z,87.22
2022-11-28T01:25:25.295Z,86.68
2022-11-28T01:27:46.757Z,86.40
2022-11-28T01:30:08.475Z,86.63
2022-11-28T01:32:30.143Z,86.43
2022-11-28T01:34:51.692Z,86.22
2022-11-28T01:37:13.159Z,85.17
2022-11-28T01:39:34.607Z,85.77
2022-11-28T01:41:56.133Z,85.82
2022-11-28T01:44:41.222Z,85.86
2022-11-28T01:47:02.879Z,85.91
2022-11-28T01:49:30.254Z,86.36
2022-11-28T01:51:58.169Z,84.72
2022-11-28T01:54:22.535Z,85.43
2022-11-28T01:57:08.219Z,84.11
2022-11-28T01:59:35.721Z,84.60
2022-11-28T02:01:57.252Z,84.67
2022-11-28T02:04:19.072Z,84.14
2022-11-28T02:06:42.155Z,85.45
2022-11-28T02:09:03.989Z,86.40
2022-11-28T02:11:25.447Z,86.01
2022-11-28T02:14:05.742Z,85.00
2022-11-28T02:17:06.239Z,84.12
2022-11-28T02:19:59.538Z,84.24
2022-11-28T02:22:28.899Z,82.81
2022-11-28T02:25:05.369Z,82.40
2022-11-28T02:28:12.031Z,83.81
2022-11-28T02:31:15.082Z,82.39
2022-11-28T02:33:44.915Z,83.43
2022-11-28T02:36:26.363Z,82.47
2022-11-28T02:39:09.221Z,83.08
2022-11-28T02:41:43.224Z,82.42
2022-11-28T02:44:14.807Z,82.35
2022-11-28T02:46:36.280Z,83.55
2022-11-28T02:49:07.152Z,84.70
2022-11-28T02:51:32.311Z,84.08
2022-11-28T02:53:55.737Z,84.74
2022-11-28T02:56:17.691Z,84.13
2022-11-28T02:58:39.275Z,84.71
2022-11-28T03:01:00.838Z,85.02
2022-11-28T03:03:37.493Z,85.22
2022-11-28T03:06:09.640Z,86.72
2022-11-28T03:08:49.888Z,87.95
2022-11-28T03:11:31.401Z,88.44
2022-11-28T03:13:58.917Z,87.71
2022-11-28T03:16:30.669Z,87.38
2022-11-28T03:19:24.201Z,86.15
2022-11-28T03:21:57.210Z,86.04
2022-11-28T03:24:27.925Z,85.67
2022-11-28T03:27:27.851Z,84.08
2022-11-28T03:30:01.498Z,84.96
2022-11-28T03:32:33.556Z,85.96
2022-11-28T03:35:05.189Z,86.85
2022-11-28T03:37:31.637Z,86.59
2022-11-28T03:40:00.774Z,87.58
2022-11-28T03:42:25.282Z,87.71
2022-11-28T03:44:52.608Z,87.27
2022-11-28T03:47:14.076Z,87.31
2022-11-28T03:49:40.562Z,86.12
2022-11-28T03:52:05.565Z,86.90
2022-11-28T03:54:32.145Z,86.45
2022-11-28T03:57:11.699Z,85.99
2022-11-28T03:59:36.977Z,85.92
2022-11-28T04:02:16.972Z,86.99
2022-11-28T04:04:55.047Z,86.36
2022-11-28T04:07:52.399Z,86.22
2022-11-28T04:10:39.183Z,86.55
2022-11-28T04:13:18.050Z,86.86
2022-11-28T04:15:54.547Z,86.08
2022-11-28T04:18:21.226Z,86.07
2022-11-28T04:20:49.690Z,86.23
2022-11-28T04:23:15.228Z,86.09
2022-11-28T04:25:41.505Z,86.79
2022-11-28T04:28:13.104Z,86.50
2022-11-28T04:30:36.886Z,85.86
2022-11-28T04:33:02.663Z,86.79
2022-11-28T04:35:32.460Z,86.70
2022-11-28T04:37:55.615Z,87.10
2022-11-28T04:40:19.186Z,87.72
2022-11-28T04:42:51.424Z,87.57
2022-11-28T04:45:17.926Z,87.23
2022-11-28T04:47:39.862Z,86.95
2022-11-28T04:50:01.508Z,86.10
2022-11-28T04:52:44.442Z,85.27
2022-11-28T04:55:27.963Z,84.63
2022-11-28T04:57:57.332Z,86.04
2022-11-28T05:00:21.521Z,88.57
2022-11-28T05:02:45.897Z,88.90
2022-11-28T05:05:14.071Z,88.04
2022-11-28T05:07:35.617Z,87.44
2022-11-28T05:09:57.706Z,87.13
2022-11-28T05:12:19.253Z,86.13
2022-11-28T05:14:41.061Z,85.04
2022-11-28T05:17:02.719Z,85.92
2022-11-28T05:19:24.219Z,87.13
2022-11-28T05:21:45.752Z,86.40
2022-11-28T05:24:08.211Z,84.99
2022-11-28T05:26:32.273Z,86.88
2022-11-28T05:28:53.994Z,86.80
2022-11-28T05:31:15.787Z,85.52
2022-11-28T05:33:37.377Z,85.93
2022-11-28T05:36:13.221Z,87.07
2022-11-28T05:38:35.478Z,85.07
2022-11-28T05:40:56.899Z,87.37
2022-11-28T05:43:18.347Z,87.50
2022-11-28T05:45:44.230Z,87.23
2022-11-28T05:48:06.154Z,86.58
2022-11-28T05:50:28.330Z,85.71
2022-11-28T05:52:49.788Z,86.13
2022-11-28T05:55:11.233Z,86.40
2022-11-28T05:57:32.745Z,86.84
2022-11-28T05:59:54.181Z,86.39
2022-11-28T06:02:15.735Z,87.40
2022-11-28T06:04:38.124Z,86.77
2022-11-28T06:06:59.606Z,86.44
2022-11-28T06:09:25.657Z,86.52
2022-11-28T06:14:16.349Z,85.37
2022-11-28T06:16:38.038Z,86.09
2022-11-28T06:19:02.013Z,85.90
2022-11-28T06:21:23.685Z,85.95
2022-11-28T06:23:45.126Z,85.81
2022-11-28T06:26:07.464Z,85.62
2022-11-28T06:28:28.929Z,85.82
2022-11-28T06:30:50.410Z,86.28
2022-11-28T06:33:11.871Z,86.23
2022-11-28T06:35:33.503Z,86.94
2022-11-28T06:37:55.006Z,87.08
2022-11-28T06:40:16.662Z,85.14
2022-11-28T06:42:38.240Z,85.10
2022-11-28T06:44:59.715Z,85.84
2022-11-28T06:47:21.186Z,84.17
2022-11-28T06:49:42.904Z,82.42
2022-11-28T06:52:04.714Z,82.91
2022-11-28T06:54:26.170Z,82.25
2022-11-28T06:56:47.609Z,82.08
2022-11-28T06:59:11.983Z,82.42
2022-11-28T07:01:34.359Z,83.50
2022-11-28T07:03:56.128Z,83.63
2022-11-28T07:06:19.715Z,82.92
2022-11-28T07:08:41.889Z,83.37
2022-11-28T07:11:23.871Z,82.82
2022-11-28T07:13:46.133Z,83.06
2022-11-28T07:16:12.348Z,82.58
2022-11-28T07:18:34.337Z,80.78
2022-11-28T07:20:55.778Z,81.56
2022-11-28T07:23:17.252Z,81.84
2022-11-28T07:25:38.734Z,81.82
2022-11-28T07:28:00.516Z,82.36
2022-11-28T07:30:23.183Z,82.88
2022-11-28T07:32:44.618Z,82.15
2022-11-28T07:35:08.191Z,82.17
2022-11-28T07:37:29.642Z,82.52
2022-11-28T07:39:51.066Z,81.91
2022-11-28T07:42:12.573Z,81.97
2022-11-28T07:44:33.990Z,82.59
2022-11-28T07:46:55.473Z,83.15
2022-11-28T07:49:17.001Z,81.50
2022-11-28T07:51:39.138Z,81.05
2022-11-28T07:54:02.067Z,81.85
2022-11-28T07:56:35.012Z,82.93
2022-11-28T07:59:03.387Z,84.29
2022-11-28T08:01:28.160Z,83.58
2022-11-28T08:03:50.653Z,82.87
2022-11-28T08:06:16.651Z,82.50
2022-11-28T08:08:38.218Z,83.02
2022-11-28T08:11:04.811Z,82.43
2022-11-28T08:13:26.374Z,82.21
2022-11-28T08:15:47.822Z,80.84
2022-11-28T08:18:09.851Z,79.99
2022-11-28T08:20:31.364Z,78.86
2022-11-28T08:22:52.805Z,78.05
2022-11-28T08:25:14.305Z,79.70
2022-11-28T08:27:35.776Z,80.72
2022-11-28T08:29:57.195Z,81.11
2022-11-28T08:32:18.773Z,82.06
2022-11-28T08:34:40.208Z,81.25
2022-11-28T08:37:01.684Z,81.46
2022-11-28T08:39:24.872Z,82.28
2022-11-28T08:41:46.722Z,83.65
2022-11-28T08:44:08.163Z,85.43
2022-11-28T08:46:29.713Z,84.03
2022-11-28T08:48:52.647Z,83.45
2022-11-28T08:51:16.095Z,83.01
2022-11-28T08:53:37.532Z,82.82
2022-11-28T08:55:59.955Z,83.01
2022-11-28T08:58:21.485Z,82.57
2022-11-28T09:00:43.130Z,81.61
2022-11-28T09:03:05.289Z,80.71
2022-11-28T09:05:28.825Z,79.26
2022-11-28T09:07:50.284Z,79.31
2022-11-28T09:10:11.747Z,77.97
2022-11-28T09:12:33.183Z,77.03
2022-11-28T09:14:54.615Z,75.86
2022-11-28T09:17:16.147Z,75.49
2022-11-28T09:19:37.670Z,75.47
2022-11-28T09:21:59.186Z,75.40
2022-11-28T09:24:20.632Z,76.84
2022-11-28T09:26:42.582Z,76.40
2022-11-28T09:29:04.108Z,76.33
2022-11-28T09:31:25.812Z,77.16
2022-11-28T09:33:49.444Z,76.94
2022-11-28T09:36:13.560Z,76.83
2022-11-28T09:38:35.976Z,76.72
2022-11-28T09:40:57.660Z,76.43
2022-11-28T09:43:52.043Z,75.55
2022-11-28T09:46:25.131Z,74.98
2022-11-28T09:48:51.503Z,74.25
2022-11-28T09:51:31.337Z,74.13
2022-11-28T09:54:14.052Z,74.26
2022-11-28T09:56:35.672Z,74.98
2022-11-28T09:59:02.823Z,73.24
2022-11-28T10:02:17.725Z,72.85
2022-11-28T10:04:45.247Z,73.46
2022-11-28T10:07:39.283Z,72.80
2022-11-28T10:10:23.507Z,72.99
2022-11-28T10:12:47.835Z,74.58
2022-11-28T10:15:41.776Z,72.96
2022-11-28T10:18:23.449Z,74.44
2022-11-28T10:20:47.327Z,73.60
2022-11-28T10:23:31.018Z,74.12
2022-11-28T10:26:30.590Z,74.21
2022-11-28T10:28:56.079Z,74.72
2022-11-28T10:31:26.694Z,74.75
2022-11-28T10:33:57.873Z,72.31
2022-11-28T10:36:28.509Z,72.39
2022-11-28T10:38:50.079Z,72.86
2022-11-28T10:41:25.217Z,71.90
2022-11-28T10:44:10.462Z,72.14
2022-11-28T10:46:58.177Z,71.17
2022-11-28T10:49:44.705Z,70.59
2022-11-28T10:52:15.254Z,73.07
2022-11-28T10:54:49.661Z,72.99
2022-11-28T10:57:37.125Z,72.57
2022-11-28T11:00:12.189Z,71.78
2022-11-28T11:02:43.394Z,72.61
2022-11-28T11:05:07.006Z,72.93
2022-11-28T11:07:31.355Z,72.41
2022-11-28T11:09:52.999Z,71.75
2022-11-28T11:12:22.173Z,70.96
2022-11-28T11:14:44.775Z,69.75
2022-11-28T11:17:06.632Z,69.21
2022-11-28T11:19:34.227Z,68.16
2022-11-28T11:22:26.079Z,67.69
2022-11-28T11:25:12.305Z,67.87
2022-11-28T11:27:36.720Z,68.10
2022-11-28T11:29:59.045Z,67.10
2022-11-28T11:32:30.684Z,68.65
2022-11-28T11:34:53.556Z,67.12
2022-11-28T11:37:28.855Z,65.25
2022-11-28T11:39:52.158Z,66.26
2022-11-28T11:42:25.422Z,67.34
2022-11-28T11:44:46.921Z,67.18
2022-11-28T11:47:10.339Z,68.54
2022-11-28T11:49:37.554Z,68.35
2022-11-28T11:52:26.465Z,67.75
2022-11-28T11:54:56.922Z,67.85
2022-11-28T11:57:35.390Z,68.30
2022-11-28T12:00:02.455Z,67.34
2022-11-28T12:02:46.009Z,68.87
2022-11-28T12:05:20.499Z,71.24
2022-11-28T12:07:50.303Z,69.69
2022-11-28T12:10:17.672Z,70.00
2022-11-28T12:12:39.311Z,69.68
2022-11-28T12:15:00.758Z,71.45
2022-11-28T12:20:22.870Z,69.10
2022-11-28T12:23:00.208Z,69.65
2022-11-28T12:25:30.316Z,68.70
2022-11-28T12:28:29.420Z,67.59
2022-11-28T12:31:12.696Z,67.77
2022-11-28T12:33:55.167Z,67.84
2022-11-28T12:36:38.403Z,68.95
2022-11-28T12:39:19.644Z,69.01
2022-11-28T12:41:50.248Z,68.82
2022-11-28T12:44:14.565Z,68.01
2022-11-28T12:47:13.736Z,69.00
2022-11-28T12:49:44.185Z,70.30
2022-11-28T12:52:26.912Z,70.97
2022-11-28T12:55:17.601Z,70.66
2022-11-28T12:57:48.047Z,71.05
2022-11-28T13:00:18.359Z,71.65
2022-11-28T13:03:11.578Z,71.27
2022-11-28T13:05:59.136Z,72.62
2022-11-28T13:08:32.413Z,73.11
2022-11-28T13:11:03.270Z,74.09
2022-11-28T13:13:29.806Z,73.51
2022-11-28T13:16:27.640Z,73.62
2022-11-28T13:19:10.285Z,74.23
2022-11-28T13:21:48.528Z,74.93
2022-11-28T13:24:15.953Z,75.42
2022-11-28T13:26:49.162Z,75.12
2022-11-28T13:29:36.278Z,74.74
2022-11-28T13:32:26.131Z,73.67
2022-11-28T13:34:49.384Z,72.72
2022-11-28T13:40:30.569Z,73.83
2022-11-28T13:43:14.867Z,73.86
2022-11-28T13:45:41.389Z,74.26
2022-11-28T13:48:57.522Z,72.98
2022-11-28T13:51:19.128Z,73.37
2022-11-28T13:53:43.927Z,74.49
2022-11-28T13:56:05.312Z,74.51
2022-11-28T13:58:32.083Z,74.21
2022-11-28T14:01:17.772Z,74.14
2022-11-28T14:03:52.396Z,74.21
2022-11-28T14:06:19.360Z,73.65
2022-11-28T14:08:43.666Z,73.02
2022-11-28T14:11:14.211Z,73.16
2022-11-28T14:13:59.997Z,73.54
2022-11-28T14:16:33.951Z,73.15
2022-11-28T14:19:17.600Z,74.41
2022-11-28T14:22:18.038Z,74.26
2022-11-28T14:24:51.811Z,73.84
2022-11-28T14:27:21.906Z,73.91
2022-11-28T14:29:48.625Z,73.70
2022-11-28T14:32:31.044Z,74.79
2022-11-28T14:34:52.911Z,74.99
2022-11-28T14:37:52.738Z,75.25
2022-11-28T14:40:53.302Z,75.44
2022-11-28T14:43:23.814Z,75.87
2022-11-28T14:45:45.333Z,76.06
2022-11-28T14:48:28.948Z,75.95
2022-11-28T14:50:59.061Z,75.71
2022-11-28T14:53:44.630Z,76.22
2022-11-28T14:56:15.053Z,76.23
2022-11-28T14:58:36.543Z,76.52
2022-11-28T15:01:00.048Z,76.40
2022-11-28T15:03:57.524Z,76.33
2022-11-28T15:06:24.029Z,76.52
2022-11-28T15:08:48.300Z,76.52
2022-11-28T15:11:28.490Z,76.48
2022-11-28T15:14:10.668Z,76.75
2022-11-28T15:16:33.981Z,76.41
2022-11-28T15:19:00.510Z,76.43
2022-11-28T15:21:24.816Z,76.51
2022-11-28T15:23:47.008Z,76.99
2022-11-28T15:26:19.724Z,76.85
2022-11-28T15:28:41.969Z,76.55
2022-11-28T15:31:05.710Z,76.93
2022-11-28T15:33:28.540Z,76.53
2022-11-28T15:35:56.039Z,77.66
2022-11-28T15:38:17.718Z,77.71
2022-11-28T15:40:39.211Z,77.98
2022-11-28T15:43:06.614Z,79.33
2022-11-28T15:45:35.380Z,79.32
2022-11-28T15:47:57.650Z,78.42
2022-11-28T15:50:25.569Z,78.38
2022-11-28T15:53:02.386Z,77.92
2022-11-28T15:55:25.907Z,77.87
2022-11-28T15:57:47.409Z,79.23
2022-11-28T16:00:16.634Z,79.32
2022-11-28T16:02:39.732Z,78.79
2022-11-28T16:05:11.039Z,78.52
2022-11-28T16:07:39.001Z,78.89
2022-11-28T16:10:06.555Z,78.52
2022-11-28T16:12:28.771Z,77.75
2022-11-28T16:14:53.236Z,76.85
2022-11-28T16:17:26.066Z,77.79
2022-11-28T16:19:51.487Z,77.68
2022-11-28T16:22:19.597Z,77.09
2022-11-28T16:24:52.190Z,78.18
2022-11-28T16:27:36.710Z,80.33
2022-11-28T16:29:58.772Z,80.87
2022-11-28T16:32:26.083Z,82.45
2022-11-28T16:34:52.173Z,82.52
2022-11-28T16:37:14.460Z,83.19
2022-11-28T16:39:36.714Z,82.77
2022-11-28T16:42:12.613Z,84.44
2022-11-28T16:44:34.345Z,83.75
2022-11-28T16:46:57.927Z,85.65
2022-11-28T16:49:43.820Z,85.48
2022-11-28T16:52:27.321Z,84.91
2022-11-28T16:54:50.216Z,86.03
2022-11-28T16:57:14.859Z,85.48
2022-11-28T16:59:36.550Z,85.33
2022-11-28T17:01:58.070Z,84.72
2022-11-28T17:04:27.990Z,86.64
2022-11-28T17:06:50.300Z,84.83
2022-11-28T17:09:13.586Z,85.33
2022-11-28T17:11:37.801Z,85.38
2022-11-28T17:14:02.430Z,85.54
2022-11-28T17:16:26.254Z,85.74
2022-11-28T17:18:48.460Z,85.73
2022-11-28T17:21:12.125Z,86.82
2022-11-28T17:23:33.672Z,85.52
2022-11-28T17:25:55.138Z,86.12
2022-11-28T17:28:21.570Z,85.96
2022-11-28T17:30:44.716Z,85.76
2022-11-28T17:33:06.201Z,85.98
2022-11-28T17:35:34.378Z,86.10
2022-11-28T17:37:55.831Z,86.86
2022-11-28T17:40:36.737Z,85.51
2022-11-28T17:42:58.833Z,84.90
2022-11-28T17:45:22.055Z,83.96
2022-11-28T17:47:43.514Z,85.97
2022-11-28T17:50:05.651Z,85.12
2022-11-28T17:52:30.272Z,85.75
2022-11-28T17:54:51.946Z,86.27
2022-11-28T17:57:13.411Z,86.71
2022-11-28T17:59:35.987Z,86.25
2022-11-28T18:01:57.717Z,85.94
2022-11-28T18:04:19.516Z,85.25
2022-11-28T18:06:45.347Z,85.85
2022-11-28T18:09:11.706Z,86.05
2022-11-28T18:11:35.736Z,85.36
2022-11-28T18:13:58.163Z,86.32
2022-11-28T18:16:22.889Z,84.79
2022-11-28T18:18:44.679Z,85.60
2022-11-28T18:21:08.643Z,85.56
2022-11-28T18:23:30.115Z,84.51
2022-11-28T18:25:51.589Z,85.54
2022-11-28T18:28:18.831Z,87.70
2022-11-28T18:30:42.581Z,87.65
2022-11-28T18:33:04.121Z,87.13
2022-11-28T18:35:25.535Z,86.81
2022-11-28T18:37:47.013Z,86.35
2022-11-28T18:40:09.460Z,86.35
2022-11-28T18:42:31.393Z,85.40
2022-11-28T18:44:52.850Z,85.52
2022-11-28T18:47:14.288Z,85.39
2022-11-28T18:49:35.715Z,85.70
2022-11-28T18:51:57.213Z,85.59
2022-11-28T18:54:21.430Z,85.69
2022-11-28T18:56:43.197Z,84.68
2022-11-28T18:59:04.756Z,84.77
2022-11-28T19:01:30.256Z,85.17
2022-11-28T19:03:55.380Z,85.72
2022-11-28T19:06:16.860Z,86.25
2022-11-28T19:08:39.258Z,86.47
2022-11-28T19:11:09.010Z,86.77
2022-11-28T19:13:30.487Z,85.13
2022-11-28T19:15:51.909Z,85.27
2022-11-28T19:18:13.698Z,86.13
2022-11-28T19:20:35.322Z,86.79
2022-11-28T19:22:56.769Z,87.29
2022-11-28T19:25:18.190Z,86.71
2022-11-28T19:27:39.640Z,86.67
2022-11-28T19:30:01.061Z,87.10
2022-11-28T19:32:22.573Z,87.81
2022-11-28T19:34:44.153Z,87.38
2022-11-28T19:37:05.627Z,87.59
2022-11-28T19:39:27.081Z,87.77
2022-11-28T19:41:49.501Z,87.33
2022-11-28T19:44:12.122Z,87.44
2022-11-28T19:46:35.885Z,87.29
2022-11-28T19:48:57.699Z,87.04
2022-11-28T19:51:20.146Z,87.72
2022-11-28T19:53:42.680Z,87.29
2022-11-28T19:56:06.282Z,87.28
2022-11-28T19:58:29.182Z,87.62
2022-11-28T20:00:50.659Z,88.27
2022-11-28T20:03:12.129Z,88.46
2022-11-28T20:05:35.207Z,88.03
2022-11-28T20:07:58.582Z,87.94
2022-11-28T20:10:20.378Z,88.21
2022-11-28T20:12:42.231Z,87.64
2022-11-28T20:15:04.270Z,87.59
2022-11-28T20:17:25.710Z,87.75
2022-11-28T20:19:48.047Z,90.42
2022-11-28T20:22:09.524Z,90.00
2022-11-28T20:24:31.160Z,89.54
2022-11-28T20:26:52.663Z,89.39
2022-11-28T20:29:16.530Z,89.15
2022-11-28T20:31:45.554Z,89.33
2022-11-28T20:34:07.618Z,90.66
2022-11-28T20:36:30.569Z,90.16
2022-11-28T20:38:53.363Z,91.74
2022-11-28T20:41:16.063Z,93.06
2022-11-28T20:43:39.165Z,92.16
2022-11-28T20:46:02.797Z,91.19
2022-11-28T20:48:24.284Z,90.62
2022-11-28T20:50:45.740Z,90.97
2022-11-28T20:53:07.239Z,91.29
2022-11-28T20:55:28.678Z,90.44
2022-11-28T20:57:50.111Z,90.51
2022-11-28T21:00:12.204Z,89.83
2022-11-28T21:02:33.721Z,89.37
2022-11-28T21:04:55.188Z,88.70
2022-11-28T21:07:16.728Z,88.75
2022-11-28T21:09:38.177Z,88.50
2022-11-28T21:11:59.764Z,89.15
2022-11-28T21:14:21.302Z,89.63
2022-11-28T21:16:43.685Z,90.27
2022-11-28T21:19:08.928Z,89.76
2022-11-28T21:21:32.685Z,89.63
2022-11-28T21:24:09.619Z,89.25
2022-11-28T21:26:37.619Z,89.69
2022-11-28T21:29:06.183Z,89.61
2022-11-28T21:31:30.416Z,89.00
2022-11-28T21:33:54.404Z,88.81
2022-11-28T21:36:16.355Z,89.18
2022-11-28T21:38:37.800Z,89.81
2022-11-28T21:41:00.030Z,90.30
2022-11-28T21:43:22.497Z,89.84
2022-11-28T21:45:43.981Z,89.65
2022-11-28T21:48:05.608Z,89.55
2022-11-28T21:50:27.027Z,89.40
2022-11-28T21:52:48.474Z,89.87
2022-11-28T21:55:09.909Z,89.51
2022-11-28T21:57:31.456Z,88.93
2022-11-28T21:59:52.901Z,89.11
2022-11-28T22:02:14.716Z,89.82
2022-11-28T22:04:36.244Z,89.97
2022-11-28T22:06:57.752Z,90.24
2022-11-28T22:09:19.196Z,90.32
2022-11-28T22:11:40.669Z,89.92
2022-11-28T22:14:02.140Z,88.94
2022-11-28T22:16:25.824Z,89.18
2022-11-28T22:18:48.432Z,89.57
2022-11-28T22:21:49.449Z,89.64
2022-11-28T22:23:51.922Z,89.78
2022-11-28T22:26:13.421Z,89.73
2022-11-28T22:28:37.613Z,89.90
2022-11-28T22:30:59.853Z,89.35
2022-11-28T22:33:21.516Z,90.53
2022-11-28T22:35:43.032Z,90.24
2022-11-28T22:38:04.505Z,89.76
2022-11-28T22:40:25.934Z,89.33
2022-11-28T22:42:47.371Z,89.20
2022-11-28T22:45:09.699Z,89.14
2022-11-28T22:47:32.461Z,89.15
2022-11-28T22:49:53.880Z,88.72
2022-11-28T22:52:15.294Z,88.98
2022-11-28T22:54:36.880Z,89.04
2022-11-28T22:56:58.306Z,89.02
2022-11-28T22:59:19.809Z,89.00
2022-11-28T23:01:41.908Z,88.71
2022-11-28T23:04:03.708Z,89.16
2022-11-28T23:06:28.387Z,89.70
2022-11-28T23:08:50.586Z,90.71
2022-11-28T23:11:15.088Z,90.63
2022-11-28T23:13:37.685Z,90.86
2022-11-28T23:16:16.326Z,89.95
2022-11-28T23:18:37.845Z,89.75
2022-11-28T23:20:59.283Z,90.08
2022-11-28T23:23:20.726Z,89.81
2022-11-28T23:25:42.157Z,89.53
2022-11-28T23:28:03.708Z,89.87
2022-11-28T23:30:25.381Z,89.17
2022-11-28T23:32:46.864Z,88.81
2022-11-28T23:35:08.675Z,88.12
2022-11-28T23:37:30.128Z,88.68
2022-11-28T23:39:51.549Z,88.67
2022-11-28T23:42:12.975Z,89.56
2022-11-28T23:44:34.485Z,90.40
2022-11-28T23:46:55.943Z,90.39
2022-11-28T23:49:17.410Z,90.68
2022-11-28T23:51:40.568Z,91.00
2022-11-28T23:54:02.188Z,90.38
2022-11-28T23:56:26.461Z,90.09
2022-11-28T23:58:48.710Z,90.26
